createdAt,value
2022-12-14T00:01:19.269Z,84.71
2022-12-14T00:03:46.556Z,85.40
2022-12-14T00:06:14.090Z,85.60
2022-12-14T00:08:42.061Z,86.29
2022-12-14T00:11:09.478Z,84.63
2022-12-14T00:13:37.016Z,84.64
2022-12-14T00:16:14.071Z,86.23
2022-12-14T00:18:41.403Z,85.50
2022-12-14T00:21:10.593Z,85.36
2022-12-14T00:23:39.326Z,85.16
2022-12-14T00:26:15.542Z,85.26
2022-12-14T00:28:43.137Z,85.24
2022-12-14T00:31:10.882Z,85.07
2022-12-14T00:33:37.764Z,84.76
2022-12-14T00:36:06.102Z,85.02
2022-12-14T00:38:32.543Z,85.04
2022-12-14T00:40:59.509Z,85.56
2022-12-14T00:43:26.050Z,84.66
2022-12-14T00:45:52.742Z,84.75
2022-12-14T00:48:21.747Z,84.35
2022-12-14T00:50:50.276Z,84.73
2022-12-14T00:53:17.416Z,84.58
2022-12-14T00:55:49.421Z,85.10
2022-12-14T00:58:19.610Z,85.69
2022-12-14T01:00:47.263Z,84.63
2022-12-14T01:03:14.234Z,84.05
2022-12-14T01:05:40.776Z,84.20
2022-12-14T01:08:07.521Z,84.17
2022-12-14T01:10:34.053Z,84.57
2022-12-14T01:13:00.572Z,83.35
2022-12-14T01:15:26.923Z,84.52
2022-12-14T01:17:53.332Z,83.91
2022-12-14T01:20:20.779Z,83.41
2022-12-14T01:22:47.174Z,82.70
2022-12-14T01:25:13.523Z,83.03
2022-12-14T01:27:39.919Z,84.03
2022-12-14T01:30:06.821Z,84.40
2022-12-14T01:32:34.721Z,83.05
2022-12-14T01:35:01.119Z,83.74
2022-12-14T01:37:28.890Z,83.78
2022-12-14T01:39:55.520Z,83.70
2022-12-14T01:42:22.582Z,84.00
2022-12-14T01:44:55.783Z,84.24
2022-12-14T01:47:38.302Z,83.50
2022-12-14T01:50:16.480Z,83.76
2022-12-14T01:52:46.920Z,83.63
2022-12-14T01:55:24.705Z,83.06
2022-12-14T01:57:57.539Z,83.79
2022-12-14T02:00:24.474Z,83.07
2022-12-14T02:03:14.584Z,83.06
2022-12-14T02:05:46.290Z,83.31
2022-12-14T02:08:12.977Z,83.91
2022-12-14T02:10:39.376Z,82.80
2022-12-14T02:13:14.765Z,82.81
2022-12-14T02:15:42.026Z,84.59
2022-12-14T02:18:12.078Z,83.02
2022-12-14T02:20:52.440Z,83.04
2022-12-14T02:23:37.609Z,83.73
2022-12-14T02:26:26.862Z,82.90
2022-12-14T02:29:15.137Z,83.46
2022-12-14T02:32:15.245Z,82.60
2022-12-14T02:35:07.406Z,83.37
2022-12-14T02:37:49.208Z,83.32
2022-12-14T02:40:15.760Z,83.32
2022-12-14T02:42:56.322Z,83.71
2022-12-14T02:45:45.922Z,83.34
2022-12-14T02:48:18.953Z,84.15
2022-12-14T02:50:56.111Z,84.06
2022-12-14T02:53:58.908Z,83.63
2022-12-14T02:56:31.744Z,84.28
2022-12-14T02:58:58.196Z,84.29
2022-12-14T03:01:27.592Z,83.90
2022-12-14T03:03:54.059Z,83.83
2022-12-14T03:06:26.656Z,83.60
2022-12-14T03:09:04.020Z,83.52
2022-12-14T03:11:41.188Z,82.80
2022-12-14T03:14:19.217Z,83.25
2022-12-14T03:16:51.880Z,82.92
2022-12-14T03:19:30.321Z,83.23
2022-12-14T03:22:01.257Z,82.48
2022-12-14T03:24:32.546Z,83.03
2022-12-14T03:27:14.285Z,82.14
2022-12-14T03:29:47.479Z,82.51
2022-12-14T03:32:18.829Z,83.68
2022-12-14T03:35:09.247Z,83.37
2022-12-14T03:37:56.820Z,84.11
2022-12-14T03:40:30.931Z,83.90
2022-12-14T03:43:21.839Z,83.55
2022-12-14T03:46:09.416Z,82.42
2022-12-14T03:48:50.065Z,84.03
2022-12-14T03:51:42.626Z,83.07
2022-12-14T03:54:30.839Z,83.40
2022-12-14T03:57:06.909Z,82.49
2022-12-14T03:59:50.592Z,82.42
2022-12-14T04:02:37.609Z,83.13
2022-12-14T04:05:19.889Z,83.67
2022-12-14T04:07:55.353Z,84.03
2022-12-14T04:10:47.437Z,83.45
2022-12-14T04:13:41.146Z,83.13
2022-12-14T04:16:53.239Z,83.62
2022-12-14T04:19:49.866Z,82.93
2022-12-14T04:22:24.373Z,83.13
2022-12-14T04:25:31.160Z,83.07
2022-12-14T04:28:05.088Z,83.52
2022-12-14T04:30:37.943Z,83.40
2022-12-14T04:33:29.747Z,83.80
2022-12-14T04:35:59.930Z,83.99
2022-12-14T04:38:33.359Z,83.55
2022-12-14T04:41:06.412Z,84.13
2022-12-14T04:43:38.626Z,83.77
2022-12-14T04:46:08.919Z,83.29
2022-12-14T04:48:45.036Z,82.98
2022-12-14T04:51:31.220Z,83.19
2022-12-14T04:54:09.497Z,83.55
2022-12-14T04:56:46.102Z,83.37
2022-12-14T04:59:12.790Z,83.55
2022-12-14T05:02:15.758Z,83.14
2022-12-14T05:04:54.862Z,83.23
2022-12-14T05:07:54.966Z,83.26
2022-12-14T05:10:40.851Z,83.20
2022-12-14T05:13:27.938Z,83.35
2022-12-14T05:15:56.887Z,83.42
2022-12-14T05:18:23.867Z,83.25
2022-12-14T05:20:50.471Z,82.98
2022-12-14T05:23:17.402Z,82.67
2022-12-14T05:25:44.101Z,82.76
2022-12-14T05:28:12.094Z,83.89
2022-12-14T05:30:38.856Z,83.77
2022-12-14T05:33:05.589Z,83.19
2022-12-14T05:35:32.048Z,83.54
2022-12-14T05:37:58.374Z,83.51
2022-12-14T05:40:24.756Z,83.38
2022-12-14T05:42:55.686Z,83.34
2022-12-14T05:45:22.511Z,83.49
2022-12-14T05:47:48.903Z,83.46
2022-12-14T05:50:15.340Z,82.75
2022-12-14T05:52:41.668Z,82.79
2022-12-14T05:55:08.652Z,82.43
2022-12-14T05:57:35.002Z,82.00
2022-12-14T06:00:01.478Z,82.05
2022-12-14T06:02:27.983Z,81.88
2022-12-14T06:04:54.429Z,81.53
2022-12-14T06:07:26.069Z,81.51
2022-12-14T06:09:54.525Z,81.12
2022-12-14T06:12:20.892Z,81.53
2022-12-14T06:14:47.237Z,81.64
2022-12-14T06:17:13.572Z,81.43
2022-12-14T06:19:39.912Z,81.11
2022-12-14T06:22:06.311Z,81.11
2022-12-14T06:24:32.649Z,81.78
2022-12-14T06:26:59.032Z,82.08
2022-12-14T06:29:26.651Z,82.21
2022-12-14T06:31:53.030Z,82.88
2022-12-14T06:34:23.445Z,82.83
2022-12-14T06:36:52.873Z,81.63
2022-12-14T06:39:19.399Z,80.81
2022-12-14T06:41:50.823Z,80.39
2022-12-14T06:44:17.390Z,80.95
2022-12-14T06:46:44.701Z,81.72
2022-12-14T06:49:14.263Z,81.02
2022-12-14T06:51:41.213Z,81.19
2022-12-14T06:54:12.903Z,81.14
2022-12-14T06:56:39.730Z,81.50
2022-12-14T06:59:06.174Z,81.16
2022-12-14T07:01:32.686Z,81.24
2022-12-14T07:03:59.616Z,80.83
2022-12-14T07:06:28.657Z,81.30
2022-12-14T07:08:57.234Z,81.77
2022-12-14T07:11:25.012Z,81.24
2022-12-14T07:13:51.402Z,82.03
2022-12-14T07:16:25.936Z,82.37
2022-12-14T07:18:54.067Z,81.63
2022-12-14T07:21:21.492Z,82.20
2022-12-14T07:23:49.382Z,81.27
2022-12-14T07:26:19.727Z,82.43
2022-12-14T07:28:46.539Z,80.80
2022-12-14T07:31:24.311Z,80.48
2022-12-14T07:33:55.821Z,80.48
2022-12-14T07:36:24.278Z,80.60
2022-12-14T07:38:51.972Z,81.18
2022-12-14T07:41:22.994Z,81.70
2022-12-14T07:43:51.404Z,80.45
2022-12-14T07:46:20.816Z,80.36
2022-12-14T07:48:52.026Z,81.17
2022-12-14T07:51:20.953Z,80.80
2022-12-14T07:53:47.970Z,80.87
2022-12-14T07:56:17.246Z,79.69
2022-12-14T07:58:44.170Z,79.76
2022-12-14T08:01:19.237Z,79.61
2022-12-14T08:03:48.988Z,80.10
2022-12-14T08:06:16.746Z,79.89
2022-12-14T08:08:43.388Z,80.07
2022-12-14T08:11:10.604Z,80.39
2022-12-14T08:13:40.681Z,81.62
2022-12-14T08:16:10.548Z,81.63
2022-12-14T08:18:37.037Z,80.67
2022-12-14T08:21:04.805Z,80.45
2022-12-14T08:23:31.511Z,80.35
2022-12-14T08:26:00.199Z,80.24
2022-12-14T08:28:28.452Z,80.00
2022-12-14T08:30:55.097Z,79.74
2022-12-14T08:33:22.217Z,79.79
2022-12-14T08:35:48.537Z,79.70
2022-12-14T08:38:15.509Z,79.52
2022-12-14T08:40:41.930Z,79.63
2022-12-14T08:43:09.056Z,79.21
2022-12-14T08:45:36.062Z,79.28
2022-12-14T08:48:02.614Z,79.50
2022-12-14T08:50:29.377Z,80.24
2022-12-14T08:52:55.876Z,79.82
2022-12-14T08:55:28.235Z,78.78
2022-12-14T08:57:55.654Z,78.81
2022-12-14T09:00:22.068Z,79.52
2022-12-14T09:02:51.752Z,78.89
2022-12-14T09:05:18.206Z,79.20
2022-12-14T09:07:44.740Z,78.92
2022-12-14T09:10:11.305Z,78.02
2022-12-14T09:12:37.718Z,78.89
2022-12-14T09:15:04.286Z,77.12
2022-12-14T09:17:30.835Z,76.01
2022-12-14T09:19:58.026Z,76.43
2022-12-14T09:22:24.528Z,77.01
2022-12-14T09:24:52.269Z,77.03
2022-12-14T09:27:18.730Z,76.37
2022-12-14T09:29:45.035Z,76.34
2022-12-14T09:32:13.555Z,74.63
2022-12-14T09:34:39.859Z,75.02
2022-12-14T09:37:07.336Z,74.44
2022-12-14T09:39:36.032Z,75.53
2022-12-14T09:42:26.292Z,75.63
2022-12-14T09:45:00.500Z,75.07
2022-12-14T09:47:43.053Z,75.83
2022-12-14T09:50:15.839Z,76.75
2022-12-14T09:52:51.663Z,76.28
2022-12-14T09:55:42.032Z,74.41
2022-12-14T09:58:28.205Z,74.93
2022-12-14T10:01:22.515Z,73.46
2022-12-14T10:04:11.978Z,75.81
2022-12-14T10:06:49.950Z,75.35
2022-12-14T10:09:31.115Z,75.10
2022-12-14T10:12:15.808Z,75.85
2022-12-14T10:14:52.211Z,76.36
2022-12-14T10:18:00.065Z,75.95
2022-12-14T10:20:50.929Z,77.45
2022-12-14T10:23:23.180Z,77.18
2022-12-14T10:25:54.755Z,76.07
2022-12-14T10:28:44.561Z,76.82
2022-12-14T10:31:18.711Z,76.21
2022-12-14T10:33:46.823Z,77.54
2022-12-14T10:36:26.222Z,76.67
2022-12-14T10:39:01.834Z,76.80
2022-12-14T10:41:28.182Z,76.77
2022-12-14T10:44:03.037Z,75.37
2022-12-14T10:46:39.618Z,76.21
2022-12-14T10:49:33.544Z,78.24
2022-12-14T10:52:14.783Z,76.40
2022-12-14T10:54:49.203Z,76.57
2022-12-14T10:57:20.449Z,78.09
2022-12-14T11:00:03.655Z,78.55
2022-12-14T11:02:39.331Z,78.58
2022-12-14T11:05:37.466Z,79.41
2022-12-14T11:08:08.737Z,80.23
2022-12-14T11:10:40.815Z,80.53
2022-12-14T11:13:13.228Z,82.21
2022-12-14T11:15:42.280Z,82.65
2022-12-14T11:18:11.611Z,83.40
2022-12-14T11:20:48.675Z,83.44
2022-12-14T11:23:20.706Z,83.05
2022-12-14T11:25:54.403Z,84.31
2022-12-14T11:28:38.058Z,83.29
2022-12-14T11:31:07.551Z,83.79
2022-12-14T11:33:50.798Z,85.18
2022-12-14T11:36:24.902Z,84.96
2022-12-14T11:38:59.616Z,84.48
2022-12-14T11:41:35.600Z,86.59
2022-12-14T11:44:22.318Z,87.46
2022-12-14T11:46:57.691Z,87.07
2022-12-14T11:49:38.104Z,84.72
2022-12-14T11:52:04.361Z,87.26
2022-12-14T11:54:39.993Z,85.58
2022-12-14T11:57:16.746Z,86.55
2022-12-14T12:00:05.470Z,85.64
2022-12-14T12:02:37.052Z,86.92
2022-12-14T12:05:16.415Z,87.32
2022-12-14T12:07:51.011Z,86.46
2022-12-14T12:10:20.347Z,87.96
2022-12-14T12:13:15.403Z,87.27
2022-12-14T12:15:49.998Z,87.93
2022-12-14T12:18:22.472Z,87.26
2022-12-14T12:20:59.009Z,88.19
2022-12-14T12:23:37.384Z,87.81
2022-12-14T12:26:14.266Z,89.06
2022-12-14T12:28:47.891Z,88.65
2022-12-14T12:31:22.780Z,88.04
2022-12-14T12:34:01.717Z,88.02
2022-12-14T12:36:30.537Z,87.83
2022-12-14T12:39:04.129Z,89.11
2022-12-14T12:41:53.913Z,89.02
2022-12-14T12:44:34.934Z,88.68
2022-12-14T12:47:37.014Z,88.32
2022-12-14T12:50:19.165Z,89.27
2022-12-14T12:53:00.907Z,88.07
2022-12-14T12:55:35.254Z,89.03
2022-12-14T12:58:03.772Z,88.15
2022-12-14T13:00:31.666Z,89.94
2022-12-14T13:03:05.481Z,88.46
2022-12-14T13:05:51.196Z,89.29
2022-12-14T13:08:25.996Z,88.37
2022-12-14T13:11:24.598Z,88.85
2022-12-14T13:13:54.171Z,89.08
2022-12-14T13:16:28.119Z,87.97
2022-12-14T13:19:18.954Z,88.24
2022-12-14T13:21:51.060Z,88.65
2022-12-14T13:24:20.467Z,89.19
2022-12-14T13:27:12.270Z,87.87
2022-12-14T13:30:08.633Z,87.32
2022-12-14T13:32:43.820Z,88.04
2022-12-14T13:35:28.286Z,89.43
2022-12-14T13:38:12.688Z,88.58
2022-12-14T13:41:10.483Z,89.38
2022-12-14T13:43:55.812Z,88.89
2022-12-14T13:46:29.081Z,87.52
2022-12-14T13:49:00.675Z,88.06
2022-12-14T13:51:32.589Z,89.04
2022-12-14T13:54:02.846Z,88.76
2022-12-14T13:56:33.562Z,89.77
2022-12-14T13:59:03.103Z,88.89
2022-12-14T14:01:47.852Z,89.51
2022-12-14T14:04:18.279Z,88.23
2022-12-14T14:06:50.038Z,88.02
2022-12-14T14:09:28.552Z,89.54
2022-12-14T14:11:58.316Z,88.73
2022-12-14T14:14:36.518Z,88.17
2022-12-14T14:17:11.755Z,89.47
2022-12-14T14:19:40.948Z,88.60
2022-12-14T14:22:26.407Z,88.74
2022-12-14T14:25:09.578Z,87.71
2022-12-14T14:27:38.711Z,88.05
2022-12-14T14:30:34.793Z,89.71
2022-12-14T14:33:43.312Z,88.12
2022-12-14T14:35:49.714Z,89.07
2022-12-14T14:38:31.923Z,88.92
2022-12-14T14:41:19.078Z,88.94
2022-12-14T14:43:59.655Z,89.91
2022-12-14T14:46:48.406Z,89.81
2022-12-14T14:49:30.290Z,89.99
2022-12-14T14:51:57.119Z,89.13
2022-12-14T14:55:11.061Z,88.84
2022-12-14T14:57:57.713Z,89.75
2022-12-14T15:00:24.710Z,88.46
2022-12-14T15:02:54.077Z,88.05
2022-12-14T15:05:44.313Z,89.19
2022-12-14T15:08:31.507Z,89.96
2022-12-14T15:11:03.126Z,88.95
2022-12-14T15:13:46.201Z,89.14
2022-12-14T15:16:43.228Z,91.30
2022-12-14T15:19:33.472Z,89.41
2022-12-14T15:22:05.025Z,90.07
2022-12-14T15:24:33.942Z,90.14
2022-12-14T15:27:08.674Z,90.27
2022-12-14T15:29:35.130Z,88.98
2022-12-14T15:32:03.992Z,90.62
2022-12-14T15:34:30.723Z,90.32
2022-12-14T15:36:57.708Z,90.75
2022-12-14T15:39:33.842Z,90.58
2022-12-14T15:42:15.161Z,90.40
2022-12-14T15:44:52.203Z,91.82
2022-12-14T15:47:27.531Z,90.33
2022-12-14T15:49:59.714Z,90.99
2022-12-14T15:52:30.554Z,91.23
2022-12-14T15:54:58.545Z,89.31
2022-12-14T15:57:25.469Z,91.44
2022-12-14T15:59:55.904Z,90.38
2022-12-14T16:02:30.367Z,90.98
2022-12-14T16:05:00.203Z,90.98
2022-12-14T16:07:48.715Z,90.47
2022-12-14T16:10:35.177Z,91.78
2022-12-14T16:13:33.852Z,91.98
2022-12-14T16:16:06.867Z,91.14
2022-12-14T16:18:33.580Z,91.76
2022-12-14T16:21:03.803Z,90.23
2022-12-14T16:23:34.032Z,90.26
2022-12-14T16:26:22.059Z,90.91
2022-12-14T16:28:48.598Z,91.41
2022-12-14T16:31:20.560Z,89.98
2022-12-14T16:34:02.444Z,91.03
2022-12-14T16:36:31.151Z,90.60
2022-12-14T16:39:01.649Z,90.15
2022-12-14T16:41:44.128Z,90.09
2022-12-14T16:44:22.272Z,88.51
2022-12-14T16:47:00.895Z,90.81
2022-12-14T16:49:39.583Z,89.76
2022-12-14T16:52:28.279Z,89.34
2022-12-14T16:55:13.267Z,90.00
2022-12-14T16:57:51.342Z,90.43
2022-12-14T17:00:22.192Z,90.23
2022-12-14T17:03:00.493Z,89.11
2022-12-14T17:05:35.514Z,90.60
2022-12-14T17:08:02.869Z,90.69
2022-12-14T17:10:30.568Z,89.29
2022-12-14T17:12:58.897Z,91.37
2022-12-14T17:15:26.655Z,90.63
2022-12-14T17:17:55.613Z,92.05
2022-12-14T17:20:29.110Z,91.16
2022-12-14T17:22:58.786Z,91.78
2022-12-14T17:25:27.294Z,90.35
2022-12-14T17:27:54.070Z,91.91
2022-12-14T17:30:24.090Z,92.12
2022-12-14T17:32:52.560Z,90.88
2022-12-14T17:35:26.297Z,92.11
2022-12-14T17:37:52.985Z,91.21
2022-12-14T17:40:19.436Z,92.40
2022-12-14T17:42:51.591Z,92.59
2022-12-14T17:45:22.031Z,90.30
2022-12-14T17:47:48.739Z,91.41
2022-12-14T17:50:16.973Z,91.29
2022-12-14T17:52:43.898Z,92.23
2022-12-14T17:55:22.165Z,91.24
2022-12-14T17:57:49.272Z,92.86
2022-12-14T18:00:46.338Z,91.97
2022-12-14T18:03:14.420Z,92.43
2022-12-14T18:05:48.108Z,92.44
2022-12-14T18:08:19.819Z,91.55
2022-12-14T18:10:51.357Z,92.64
2022-12-14T18:13:17.897Z,92.69
2022-12-14T18:15:49.833Z,92.38
2022-12-14T18:18:18.508Z,91.76
2022-12-14T18:20:49.612Z,91.79
2022-12-14T18:23:16.932Z,91.94
2022-12-14T18:25:52.610Z,91.12
2022-12-14T18:28:19.620Z,90.07
2022-12-14T18:30:49.730Z,91.19
2022-12-14T18:33:22.624Z,89.83
2022-12-14T18:35:51.192Z,90.84
2022-12-14T18:38:17.693Z,90.45
2022-12-14T18:40:49.382Z,92.93
2022-12-14T18:43:19.607Z,90.69
2022-12-14T18:45:46.157Z,91.31
2022-12-14T18:48:12.698Z,91.55
2022-12-14T18:50:42.902Z,90.87
2022-12-14T18:53:14.149Z,89.96
2022-12-14T18:55:42.003Z,90.97
2022-12-14T18:58:15.268Z,91.87
2022-12-14T19:00:41.798Z,91.61
2022-12-14T19:03:08.400Z,89.50
2022-12-14T19:05:35.103Z,91.53
2022-12-14T19:08:01.779Z,90.27
2022-12-14T19:10:30.762Z,91.35
2022-12-14T19:12:58.028Z,91.55
2022-12-14T19:15:27.913Z,90.40
2022-12-14T19:17:55.277Z,91.25
2022-12-14T19:20:23.111Z,90.93
2022-12-14T19:22:49.518Z,90.71
2022-12-14T19:25:17.418Z,90.15
2022-12-14T19:28:20.381Z,90.28
2022-12-14T19:30:31.207Z,90.40
2022-12-14T19:32:58.441Z,90.85
2022-12-14T19:35:24.979Z,91.39
2022-12-14T19:37:51.626Z,91.01
2022-12-14T19:40:19.222Z,91.42
2022-12-14T19:42:48.213Z,90.37
2022-12-14T19:45:15.251Z,89.93
2022-12-14T19:47:42.505Z,89.76
2022-12-14T19:50:12.353Z,90.68
2022-12-14T19:52:38.732Z,91.41
2022-12-14T19:55:05.583Z,91.36
2022-12-14T19:57:32.015Z,90.79
2022-12-14T19:59:59.959Z,90.92
2022-12-14T20:02:26.995Z,88.83
2022-12-14T20:04:53.594Z,89.11
2022-12-14T20:07:19.989Z,90.13
2022-12-14T20:09:46.414Z,89.75
2022-12-14T20:12:12.825Z,88.70
2022-12-14T20:14:39.968Z,89.11
2022-12-14T20:17:07.943Z,90.14
2022-12-14T20:19:34.951Z,90.31
2022-12-14T20:22:01.535Z,90.29
2022-12-14T20:24:28.074Z,89.69
2022-12-14T20:26:54.509Z,91.28
2022-12-14T20:29:20.918Z,90.03
2022-12-14T20:31:47.311Z,90.20
2022-12-14T20:34:13.720Z,91.04
2022-12-14T20:36:40.079Z,90.84
2022-12-14T20:39:06.534Z,90.64
2022-12-14T20:41:33.798Z,90.86
2022-12-14T20:44:02.007Z,89.84
2022-12-14T20:46:33.969Z,91.18
2022-12-14T20:49:03.071Z,89.80
2022-12-14T20:51:31.246Z,89.59
2022-12-14T20:53:58.466Z,90.22
2022-12-14T20:56:25.306Z,90.79
2022-12-14T20:58:51.637Z,90.12
2022-12-14T21:01:19.582Z,90.73
2022-12-14T21:03:48.273Z,89.59
2022-12-14T21:06:16.868Z,91.00
2022-12-14T21:09:04.185Z,90.23
2022-12-14T21:11:58.675Z,91.66
2022-12-14T21:14:27.967Z,90.94
2022-12-14T21:16:54.532Z,90.65
2022-12-14T21:19:21.030Z,89.79
2022-12-14T21:21:53.234Z,90.55
2022-12-14T21:24:44.850Z,89.68
2022-12-14T21:27:09.914Z,89.48
2022-12-14T21:29:37.382Z,91.59
2022-12-14T21:32:04.318Z,90.89
2022-12-14T21:34:31.837Z,90.29
2022-12-14T21:36:58.879Z,91.31
2022-12-14T21:39:25.447Z,89.96
2022-12-14T21:42:10.202Z,89.22
2022-12-14T21:44:37.361Z,88.96
2022-12-14T21:47:06.094Z,90.77
2022-12-14T21:49:32.480Z,90.51
2022-12-14T21:51:58.934Z,90.11
2022-12-14T21:54:26.290Z,90.47
2022-12-14T21:57:11.239Z,89.92
2022-12-14T21:59:40.755Z,90.26
2022-12-14T22:02:11.753Z,90.77
2022-12-14T22:04:40.057Z,91.27
2022-12-14T22:07:06.729Z,90.11
2022-12-14T22:09:33.159Z,90.51
2022-12-14T22:11:59.560Z,90.26
2022-12-14T22:14:26.002Z,91.12
2022-12-14T22:16:52.817Z,90.38
2022-12-14T22:19:22.689Z,90.77
2022-12-14T22:21:49.923Z,91.78
2022-12-14T22:24:16.772Z,89.92
2022-12-14T22:26:44.645Z,89.50
2022-12-14T22:29:11.673Z,90.67
2022-12-14T22:31:38.428Z,91.01
2022-12-14T22:34:06.160Z,90.47
2022-12-14T22:36:32.990Z,91.02
2022-12-14T22:38:59.611Z,91.11
2022-12-14T22:41:26.658Z,90.49
2022-12-14T22:43:55.267Z,90.45
2022-12-14T22:46:21.835Z,89.80
2022-12-14T22:48:48.290Z,91.15
2022-12-14T22:51:15.199Z,89.65
2022-12-14T22:53:42.889Z,89.63
2022-12-14T22:56:17.704Z,90.56
2022-12-14T22:59:22.598Z,89.61
2022-12-14T23:01:49.887Z,90.90
2022-12-14T23:04:17.144Z,88.73
2022-12-14T23:06:43.549Z,89.41
2022-12-14T23:09:28.625Z,88.57
2022-12-14T23:12:13.476Z,90.13
2022-12-14T23:14:59.184Z,90.34
2022-12-14T23:17:44.135Z,89.78
2022-12-14T23:20:29.439Z,90.39
2022-12-14T23:23:14.220Z,89.91
2022-12-14T23:25:59.335Z,90.24
2022-12-14T23:28:44.091Z,88.21
2022-12-14T23:31:34.905Z,89.09
2022-12-14T23:34:19.662Z,88.88
2022-12-14T23:37:04.448Z,88.40
2022-12-14T23:39:49.281Z,89.69
2022-12-14T23:42:34.127Z,89.19
2022-12-14T23:45:18.873Z,88.84
2022-12-14T23:48:03.679Z,90.42
2022-12-14T23:50:49.116Z,88.58
2022-12-14T23:53:34.165Z,88.73
2022-12-14T23:56:19.109Z,90.03
2022-12-14T23:59:03.824Z,89.12
